Time;durP1;ratioP1;P1;durP2;ratioP2;P2;SDS_P1;SDS_P2;PMS_P1;PMS_P2;Temp;Humidity;BMP_temperature;BMP_pressure;BME280_temperature;BME280_humidity;BME280_pressure;Samples;Min_cycle;Max_cycle;Signal;HPM_P1;HPM_P2
2021/12/05 00:23:40;;;;;;;5.93;2.70;;;;;;;3.91;90.60;99016.75;5008824;28;20431;-53
2021/12/05 00:26:10;;;;;;;8.50;2.88;;;;;;;3.84;91.56;99010.91;5014549;28;20049;-52
2021/12/05 00:29:00;;;;;;;7.03;2.95;;;;;;;3.81;91.66;99012.78;5007393;28;20127;-53
2021/12/05 00:42:00;;;;;;;;;;;;;;;3.65;92.03;99020.41;5015283;28;20042;-53
2021/12/05 00:59:03;;;;;;;7.07;2.28;;;;;;;3.68;91.68;99036.00;4979388;28;20046;-52
2021/12/05 01:09:22;;;;;;;7.13;2.30;;;;;;;3.68;92.61;99046.47;5006478;28;20131;-52
2021/12/05 01:14:50;;;;;;;6.30;2.60;;;;;;;3.72;92.34;99050.69;5011468;28;20167;-56
2021/12/05 01:17:20;;;;;;;10.05;2.47;;;;;;;3.73;91.55;99048.91;5022371;28;20041;-51
2021/12/05 01:19:48;;;;;;;7.63;2.25;;;;;;;3.73;91.54;99049.78;5013259;28;20041;-54
2021/12/05 01:22:18;;;;;;;5.82;2.22;;;;;;;3.76;91.39;99052.28;5020698;28;20049;-52
2021/12/05 01:25:05;;;;;;;11.18;1.98;;;;;;;3.75;91.55;99054.94;5021514;28;20049;-54
2021/12/05 01:30:06;;;;;;;5.43;2.17;;;;;;;3.77;91.62;99051.34;5004449;28;20065;-52
2021/12/05 01:35:30;;;;;;;7.80;2.83;;;;;;;3.82;91.51;99043.28;5017353;28;20045;-53
2021/12/05 01:38:07;;;;;;;7.18;3.00;;;;;;;3.83;91.90;99040.63;5015719;28;20041;-53
2021/12/05 01:41:05;;;;;;;7.35;2.42;;;;;;;3.85;91.77;99040.56;5007444;28;20042;-53
2021/12/05 01:52:10;;;;;;;6.72;2.40;;;;;;;3.93;91.63;99041.09;5017952;28;20046;-53
2021/12/05 01:57:44;;;;;;;6.40;2.22;;;;;;;4.07;89.75;99035.28;5018290;28;20499;-53
2021/12/05 02:09:03;;;;;;;7.95;2.00;;;;;;;3.82;91.72;99025.81;5014605;28;20967;-52
2021/12/05 02:36:32;;;;;;;8.32;2.40;;;;;;;3.92;91.90;99009.75;5020002;28;20045;-54
2021/12/05 02:39:18;;;;;;;6.13;1.95;;;;;;;3.93;92.32;99000.97;5005141;28;20111;-52
2021/12/05 02:41:47;;;;;;;8.20;1.80;;;;;;;3.90;91.84;98994.09;5019821;28;20037;-57
2021/12/05 02:44:24;;;;;;;9.27;2.22;;;;;;;3.85;93.14;98996.91;5021889;28;20045;-54
2021/12/05 02:47:01;;;;;;;14.90;2.40;;;;;;;3.83;92.60;98997.88;5008856;28;20064;-53
2021/12/05 02:49:31;;;;;;;11.32;2.83;;;;;;;3.83;92.96;99003.97;5011496;28;20046;-54
2021/12/05 02:52:04;;;;;;;6.80;2.20;;;;;;;3.69;93.06;98985.34;5016937;28;20495;-52
2021/12/05 02:54:38;;;;;;;7.63;1.88;;;;;;;3.70;93.87;99002.75;5019193;28;20057;-53
2021/12/05 02:57:06;;;;;;;7.90;2.15;;;;;;;3.65;94.33;99001.25;5014059;28;20491;-51
2021/12/05 03:02:09;;;;;;;12.65;2.40;;;;;;;3.54;95.08;99004.31;5017166;28;20053;-54
2021/12/05 03:04:40;;;;;;;7.47;2.10;;;;;;;3.47;95.40;99015.91;5008802;28;20068;-53
2021/12/05 03:07:09;;;;;;;8.18;2.42;;;;;;;3.42;95.94;99007.44;5013008;28;20152;-51
2021/12/05 03:09:38;;;;;;;11.48;2.45;;;;;;;3.42;96.03;99005.66;5005450;28;20037;-53
2021/12/05 03:12:09;;;;;;;12.25;2.47;;;;;;;3.40;96.74;99001.41;5016395;28;20041;-51
2021/12/05 03:14:37;;;;;;;6.38;2.28;;;;;;;3.40;97.05;99010.09;5010499;28;20054;-52
2021/12/05 03:17:04;;;;;;;6.50;2.50;;;;;;;3.33;97.15;99003.41;5008974;28;20045;-53
2021/12/05 03:19:30;;;;;;;6.45;2.05;;;;;;;3.30;97.30;99008.78;5007099;28;20044;-52
2021/12/05 03:21:57;;;;;;;11.85;2.50;;;;;;;3.22;98.19;99016.06;5007541;28;22501;-52
2021/12/05 03:24:24;;;;;;;9.65;2.30;;;;;;;3.11;97.49;99005.16;5016389;28;20042;-52
2021/12/05 03:26:53;;;;;;;10.52;2.70;;;;;;;3.18;98.56;99028.41;5011453;28;20060;-52
2021/12/05 03:29:22;;;;;;;9.95;2.63;;;;;;;3.16;98.41;99022.38;5016954;28;20049;-52
2021/12/05 03:31:50;;;;;;;6.88;2.40;;;;;;;3.14;98.74;99012.91;5010861;28;20419;-53
2021/12/05 03:34:18;;;;;;;9.35;2.40;;;;;;;3.18;98.76;99025.78;5013710;28;20456;-52
2021/12/05 03:36:51;;;;;;;8.63;2.58;;;;;;;3.23;98.43;99011.69;5011542;28;20053;-52
2021/12/05 03:39:17;;;;;;;10.50;2.50;;;;;;;3.18;98.48;99015.31;5009152;28;20052;-53
2021/12/05 03:41:46;;;;;;;12.27;2.70;;;;;;;3.21;99.09;99019.59;5011151;28;20407;-52
2021/12/05 03:44:15;;;;;;;12.45;2.88;;;;;;;3.27;98.42;99026.34;5004698;28;20057;-53
2021/12/05 03:46:42;;;;;;;11.23;2.30;;;;;;;3.34;98.27;99019.94;5011808;28;20711;-54
2021/12/05 03:49:12;;;;;;;6.60;2.63;;;;;;;3.43;97.02;99017.84;5007947;28;20061;-54
2021/12/05 03:51:43;;;;;;;12.90;3.63;;;;;;;3.47;96.65;99015.91;5007609;28;20057;-53
2021/12/05 03:54:10;;;;;;;8.10;2.65;;;;;;;3.48;95.82;99015.00;5009644;28;20050;-53
2021/12/05 03:56:37;;;;;;;7.03;2.17;;;;;;;3.56;96.08;99027.81;5013268;28;20630;-51
2021/12/05 03:59:06;;;;;;;13.80;2.83;;;;;;;3.56;96.46;99022.56;5009028;28;20045;-52
2021/12/05 04:01:32;;;;;;;8.50;2.80;;;;;;;3.60;95.20;99022.38;5010438;28;20048;-53
2021/12/05 04:03:59;;;;;;;9.40;2.30;;;;;;;3.63;94.91;99021.38;5020311;28;20065;-53
2021/12/05 04:06:27;;;;;;;8.65;2.60;;;;;;;3.63;94.64;99024.84;5012621;28;20058;-53
2021/12/05 04:08:57;;;;;;;7.35;2.30;;;;;;;3.62;94.23;99020.53;5013351;28;20046;-54
2021/12/05 04:11:30;;;;;;;8.17;2.23;;;;;;;3.64;94.36;99021.34;5017148;28;20041;-52
2021/12/05 04:13:57;;;;;;;10.02;2.63;;;;;;;3.61;93.88;99025.88;5013977;28;20567;-52
2021/12/05 04:16:24;;;;;;;7.97;2.25;;;;;;;3.55;93.95;99026.09;5013578;28;20053;-58
2021/12/05 04:18:51;;;;;;;14.90;2.47;;;;;;;3.48;94.48;99013.25;5007866;28;20041;-53
2021/12/05 04:21:18;;;;;;;11.88;2.95;;;;;;;3.55;93.42;99023.47;5015183;28;20050;-52
2021/12/05 04:23:46;;;;;;;12.52;2.13;;;;;;;3.46;94.46;99003.78;5016347;28;20056;-53
2021/12/05 04:26:13;;;;;;;6.63;2.40;;;;;;;3.61;93.79;99028.47;5009548;28;20538;-53
2021/12/05 04:28:40;;;;;;;8.35;1.92;;;;;;;3.51;92.84;98997.44;4999933;28;20049;-52
2021/12/05 04:31:10;;;;;;;11.95;2.60;;;;;;;3.60;93.48;99024.16;5003525;28;20478;-52
2021/12/05 04:33:37;;;;;;;9.73;2.10;;;;;;;3.59;92.64;99018.06;5018127;28;20041;-52
2021/12/05 04:36:05;;;;;;;10.68;2.08;;;;;;;3.56;93.80;99012.94;5017659;28;20406;-52
2021/12/05 04:38:32;;;;;;;8.27;2.20;;;;;;;3.51;92.99;99001.81;5002319;28;20586;-53
2021/12/05 04:41:00;;;;;;;7.45;2.10;;;;;;;3.49;92.90;99007.09;5019421;28;20571;-52
2021/12/05 04:43:27;;;;;;;6.43;1.98;;;;;;;3.46;93.15;99012.44;5012757;28;20121;-53
2021/12/05 04:45:53;;;;;;;8.10;2.25;;;;;;;3.43;93.13;99011.75;5010778;28;20483;-53
2021/12/05 04:48:20;;;;;;;9.88;2.45;;;;;;;3.39;93.10;99012.78;5009237;28;20056;-50
2021/12/05 04:50:47;;;;;;;9.65;2.38;;;;;;;3.36;94.00;99013.75;5018539;28;20132;-53
2021/12/05 04:53:14;;;;;;;7.75;2.30;;;;;;;3.36;93.90;99023.34;5008871;28;20053;-51
2021/12/05 04:55:40;;;;;;;6.68;2.00;;;;;;;3.37;94.16;99011.97;5010320;28;20045;-52
2021/12/05 04:58:07;;;;;;;7.03;2.00;;;;;;;3.42;93.62;99010.91;5002225;28;20065;-52
2021/12/05 05:00:41;;;;;;;5.13;2.00;;;;;;;3.51;93.56;99009.66;5010916;28;20137;-54
2021/12/05 05:03:10;;;;;;;6.40;1.80;;;;;;;3.55;92.84;99015.63;5009512;28;20054;-51
2021/12/05 05:05:41;;;;;;;6.82;2.00;;;;;;;3.47;92.90;99001.06;5010334;28;20049;-51
2021/12/05 05:08:07;;;;;;;10.73;1.95;;;;;;;3.56;92.70;99019.94;5007312;28;20053;-52
2021/12/05 05:10:35;;;;;;;8.52;2.22;;;;;;;3.54;92.84;99025.25;5006978;28;20050;-52
2021/12/05 05:13:02;;;;;;;8.38;1.98;;;;;;;3.55;92.16;99026.94;5018318;28;20045;-53
2021/12/05 05:15:30;;;;;;;8.15;1.80;;;;;;;3.56;92.80;99036.50;5014889;28;20049;-53
2021/12/05 05:17:59;;;;;;;10.63;2.22;;;;;;;3.57;92.83;99034.75;5011998;28;20049;-51
2021/12/05 05:20:36;;;;;;;6.43;2.05;;;;;;;3.60;92.30;99040.72;5016482;28;20415;-52
2021/12/05 05:39:08;;;;;;;6.47;2.30;;;;;;;3.55;92.10;99042.66;5014353;28;20566;-52
2021/12/05 05:45:05;;;;;;;7.78;2.35;;;;;;;3.47;93.46;99034.25;5013070;28;20034;-50
2021/12/05 05:47:33;;;;;;;4.38;2.03;;;;;;;3.45;93.95;99033.47;5003353;28;20053;-52
2021/12/05 05:50:00;;;;;;;9.23;2.85;;;;;;;3.41;93.94;99035.34;5010175;28;20056;-52
2021/12/05 05:52:28;;;;;;;5.90;2.50;;;;;;;3.44;94.74;99047.47;5014983;28;20041;-53
2021/12/05 05:54:58;;;;;;;5.43;2.70;;;;;;;3.47;94.97;99044.72;5010892;28;20049;-51
2021/12/05 05:57:30;;;;;;;11.98;3.40;;;;;;;3.49;95.26;99055.97;5010850;28;20049;-54
2021/12/05 06:05:13;;;;;;;8.20;3.00;;;;;;;3.37;97.19;99038.16;5019066;28;20069;-54
2021/12/05 06:07:44;;;;;;;8.88;2.65;;;;;;;3.45;97.58;99057.88;5007516;28;20427;-53
2021/12/05 06:10:17;;;;;;;4.82;2.80;;;;;;;3.43;97.91;99043.16;5016812;28;20084;-52
2021/12/05 06:12:44;;;;;;;5.18;2.10;;;;;;;3.44;97.69;99052.72;5013131;28;20045;-53
2021/12/05 06:15:13;;;;;;;10.43;2.80;;;;;;;3.40;98.14;99051.13;5017235;28;20045;-52
2021/12/05 06:17:41;;;;;;;8.98;3.13;;;;;;;3.36;98.58;99054.75;5010914;28;20046;-52
2021/12/05 06:20:11;;;;;;;8.43;2.65;;;;;;;3.32;98.84;99059.25;5010553;28;20382;-53
2021/12/05 06:22:38;;;;;;;4.88;2.78;;;;;;;3.31;99.49;99056.69;5019555;28;22562;-50
2021/12/05 06:25:09;;;;;;;8.10;2.75;;;;;;;3.29;100.00;99058.53;5017778;28;20077;-52
2021/12/05 06:27:36;;;;;;;6.68;3.25;;;;;;;3.25;100.00;99055.19;5011327;28;20045;-53
2021/12/05 06:46:01;;;;;;;7.22;3.60;;;;;;;3.34;100.00;99077.50;5008247;28;20049;-52
2021/12/05 06:46:34;;;;;;;7.00;4.00;;;;;;;3.36;100.00;99088.78;5014988;28;20529;-53
2021/12/05 06:49:00;;;;;;;7.90;3.50;;;;;;;3.37;100.00;99085.25;5019590;28;20499;-54
2021/12/05 06:51:29;;;;;;;6.35;3.20;;;;;;;3.38;100.00;99084.34;5011345;28;20087;-51
2021/12/05 06:53:57;;;;;;;12.90;3.72;;;;;;;3.34;100.00;99093.22;5009286;28;20064;-53
2021/12/05 06:56:24;;;;;;;7.85;3.75;;;;;;;3.32;100.00;99095.88;5019261;28;20494;-51
2021/12/05 06:58:51;;;;;;;10.20;4.03;;;;;;;3.34;100.00;99098.44;5018497;28;20049;-52
2021/12/05 07:01:18;;;;;;;10.35;3.55;;;;;;;3.34;100.00;99099.28;5020150;28;20352;-53
2021/12/05 07:03:47;;;;;;;15.23;4.50;;;;;;;3.34;100.00;99101.06;5018064;28;20064;-51
2021/12/05 07:06:27;;;;;;;7.43;2.72;;;;;;;3.41;100.00;99100.78;5017019;28;20100;-53
2021/12/05 07:09:00;;;;;;;10.45;3.40;;;;;;;3.37;100.00;99100.94;5017046;28;20052;-51
2021/12/05 07:11:37;;;;;;;11.20;3.20;;;;;;;3.33;100.00;99105.44;5012370;28;20049;-54
2021/12/05 07:14:30;;;;;;;13.60;3.55;;;;;;;3.29;100.00;99111.72;5015158;28;21947;-52
2021/12/05 07:17:00;;;;;;;13.88;3.67;;;;;;;3.18;100.00;99109.47;5008973;28;20132;-53
2021/12/05 07:21:58;;;;;;;12.48;3.90;;;;;;;3.13;100.00;99113.19;5014256;28;20049;-53
2021/12/05 07:25:06;;;;;;;14.60;4.60;;;;;;;3.13;100.00;99121.06;5019506;28;20064;-53
2021/12/05 07:43:50;;;;;;;12.82;4.40;;;;;;;3.33;100.00;99134.22;5008982;28;20067;-52
2021/12/05 07:46:16;;;;;;;13.18;4.35;;;;;;;3.36;100.00;99135.88;5016542;28;20063;-51
2021/12/05 07:48:46;;;;;;;12.98;3.92;;;;;;;3.40;100.00;99135.69;5010013;28;20049;-51
2021/12/05 07:54:16;;;;;;;9.48;3.72;;;;;;;3.46;100.00;99121.53;5012773;28;20045;-52
2021/12/05 07:56:46;;;;;;;14.00;4.10;;;;;;;3.47;100.00;99121.47;5013998;28;20522;-52
2021/12/05 08:15:33;;;;;;;8.88;3.08;;;;;;;3.68;100.00;99137.25;5013944;28;20052;-53
2021/12/05 08:18:00;;;;;;;6.63;2.95;;;;;;;3.90;100.00;99140.75;5004236;28;20045;-53
2021/12/05 08:20:35;;;;;;;6.63;2.75;;;;;;;4.11;100.00;99139.00;5006145;28;20045;-53
2021/12/05 08:23:03;;;;;;;8.63;2.53;;;;;;;4.22;100.00;99137.69;5001597;28;20049;-52
2021/12/05 08:25:33;;;;;;;6.95;2.42;;;;;;;4.31;100.00;99144.28;5009905;28;20067;-52
2021/12/05 08:30:47;;;;;;;7.07;2.50;;;;;;;4.31;100.00;99152.16;5008777;28;20045;-52
2021/12/05 08:36:12;;;;;;;8.50;2.80;;;;;;;4.02;100.00;99149.88;5008623;28;20041;-53
2021/12/05 10:02:39;;;;;;;10.15;2.80;;;;;;;4.86;96.13;99174.28;5009988;28;20049;-52
2021/12/05 10:15:51;;;;;;;6.80;2.50;;;;;;;6.11;88.34;99196.63;5006424;28;20053;-51
2021/12/05 10:18:55;;;;;;;8.55;2.45;;;;;;;6.24;86.47;99177.56;4999954;28;20053;-54
2021/12/05 10:35:51;;;;;;;9.43;2.40;;;;;;;6.04;85.37;99167.16;5018644;28;20507;-51
2021/12/05 10:38:51;;;;;;;6.57;2.60;;;;;;;6.14;85.15;99159.69;5006878;28;20049;-52
2021/12/05 10:44:08;;;;;;;4.22;2.13;;;;;;;6.26;84.05;99151.19;5011944;28;20060;-52
2021/12/05 10:46:36;;;;;;;8.80;2.55;;;;;;;6.23;84.63;99152.19;5017863;28;20045;-53
2021/12/05 10:49:07;;;;;;;5.00;2.22;;;;;;;6.32;84.17;99159.63;5004685;28;20038;-53
2021/12/05 10:51:37;;;;;;;4.40;2.10;;;;;;;6.46;84.17;99156.31;5013609;28;20168;-53
2021/12/05 10:54:07;;;;;;;6.13;2.13;;;;;;;6.71;82.97;99153.31;5005681;28;20050;-51
2021/12/05 10:56:39;;;;;;;5.47;1.67;;;;;;;6.89;80.77;99156.78;5015447;28;20053;-52
2021/12/05 10:59:16;;;;;;;4.05;1.40;;;;;;;7.01;79.42;99164.03;5004760;28;20045;-57
2021/12/05 11:01:47;;;;;;;5.78;1.88;;;;;;;7.00;78.00;99159.69;5015665;28;20056;-53
2021/12/05 11:04:14;;;;;;;3.90;1.27;;;;;;;7.00;77.07;99154.44;5009753;28;20467;-53
2021/12/05 11:06:49;;;;;;;10.70;1.65;;;;;;;7.05;77.14;99144.53;5019057;28;20149;-52
2021/12/05 11:09:28;;;;;;;5.13;1.58;;;;;;;7.17;77.03;99151.78;5009531;28;20048;-52
2021/12/05 11:12:05;;;;;;;5.30;1.58;;;;;;;7.26;76.83;99148.63;5014947;28;20049;-52
2021/12/05 11:14:47;;;;;;;5.57;1.60;;;;;;;7.33;75.62;99150.03;5008122;28;20157;-52
2021/12/05 11:17:16;;;;;;;4.82;1.30;;;;;;;7.18;77.08;99150.00;5013473;28;20042;-53
2021/12/05 11:19:58;;;;;;;3.13;1.58;;;;;;;7.09;75.64;99146.03;5006951;28;20057;-52
2021/12/05 11:22:42;;;;;;;2.85;1.73;;;;;;;7.09;76.23;99148.66;5019589;28;20179;-51
2021/12/05 11:25:19;;;;;;;4.05;1.63;;;;;;;7.20;75.11;99159.50;5005466;28;20058;-51
2021/12/05 11:27:55;;;;;;;3.97;1.20;;;;;;;6.93;75.51;99159.16;5015537;28;20064;-52
2021/12/05 11:30:31;;;;;;;3.60;1.40;;;;;;;6.78;76.29;99159.09;5007092;28;20053;-52
2021/12/05 11:33:06;;;;;;;3.80;1.30;;;;;;;6.79;75.56;99166.91;5014827;28;20763;-52
2021/12/05 11:35:42;;;;;;;2.80;1.50;;;;;;;6.66;76.43;99165.84;5014621;28;20072;-53
2021/12/05 11:38:21;;;;;;;4.25;1.80;;;;;;;6.56;78.10;99164.59;5011756;28;20049;-53
2021/12/05 11:40:58;;;;;;;5.05;1.60;;;;;;;6.68;77.57;99164.81;5002664;28;20073;-52
2021/12/05 11:43:32;;;;;;;5.82;2.20;;;;;;;6.90;76.82;99176.91;5007238;28;20038;-53
2021/12/05 11:46:14;;;;;;;4.50;1.92;;;;;;;7.10;76.98;99173.22;5010626;28;20041;-54
2021/12/05 11:48:46;;;;;;;5.93;1.95;;;;;;;7.12;75.93;99161.69;4998348;28;20053;-53
2021/12/05 11:51:18;;;;;;;3.97;1.63;;;;;;;7.05;75.30;99165.59;5010380;28;20476;-53
2021/12/05 11:53:57;;;;;;;2.67;1.45;;;;;;;6.93;75.11;99161.78;5009398;28;20042;-54
2021/12/05 11:56:29;;;;;;;4.15;2.08;;;;;;;6.93;76.00;99171.47;5011390;28;20046;-55
2021/12/05 11:59:10;;;;;;;4.70;2.60;;;;;;;6.78;75.95;99167.84;5011561;28;20399;-52
2021/12/05 12:01:59;;;;;;;;;;;;;;;6.63;75.63;99172.09;5014672;28;20042;-56
2021/12/05 12:04:45;;;;;;;3.33;1.77;;;;;;;6.47;74.75;99168.53;5010321;28;19929;-54
2021/12/05 12:07:14;;;;;;;2.25;1.60;;;;;;;6.34;75.31;99162.19;5016717;28;20046;-53
2021/12/05 12:09:41;;;;;;;4.93;1.65;;;;;;;6.23;75.30;99170.59;5006103;28;20077;-53
2021/12/05 12:12:09;;;;;;;3.58;1.70;;;;;;;6.25;73.84;99162.63;5017056;28;20051;-52
2021/12/05 12:14:36;;;;;;;2.33;1.80;;;;;;;6.29;74.19;99161.56;5009207;28;20394;-52
2021/12/05 12:17:07;;;;;;;3.03;1.30;;;;;;;6.27;73.38;99143.25;5013084;28;20049;-53
2021/12/05 12:19:36;;;;;;;4.13;2.00;;;;;;;6.55;73.24;99157.63;5002866;28;20139;-51
2021/12/05 12:22:04;;;;;;;4.97;1.83;;;;;;;6.64;73.17;99154.53;5013359;28;20052;-51
2021/12/05 12:24:31;;;;;;;3.40;1.30;;;;;;;6.86;72.01;99164.81;5011012;28;20522;-52
2021/12/05 12:26:58;;;;;;;3.22;1.30;;;;;;;6.83;72.04;99157.94;5008307;28;20037;-51
2021/12/05 12:29:26;;;;;;;3.78;1.70;;;;;;;6.76;72.41;99159.19;5003298;28;20055;-52
2021/12/05 12:31:59;;;;;;;4.25;1.60;;;;;;;6.63;72.76;99161.56;5010458;28;20851;-52
2021/12/05 12:34:26;;;;;;;3.50;1.40;;;;;;;6.71;73.11;99160.34;5011891;28;20107;-52
2021/12/05 12:36:59;;;;;;;3.60;1.30;;;;;;;6.73;72.58;99158.50;5016104;28;20046;-53
2021/12/05 12:39:38;;;;;;;4.72;1.20;;;;;;;6.72;71.64;99162.91;5004113;28;20056;-53
2021/12/05 12:42:23;;;;;;;2.85;1.02;;;;;;;6.66;72.65;99158.78;5003474;28;21092;-53
2021/12/05 12:44:59;;;;;;;3.60;1.00;;;;;;;6.54;73.15;99153.31;5004820;28;20148;-53
2021/12/05 12:47:44;;;;;;;3.92;1.20;;;;;;;6.30;73.59;99147.47;5003091;28;20053;-56
2021/12/05 12:50:34;;;;;;;6.47;1.92;;;;;;;6.13;74.85;99158.00;5007922;28;20054;-52
2021/12/05 12:53:37;;;;;;;2.00;1.10;;;;;;;6.04;75.43;99154.00;5008438;28;20042;-54
2021/12/05 12:56:17;;;;;;;3.38;1.27;;;;;;;5.95;75.21;99160.56;5005982;28;20431;-52
2021/12/05 12:58:49;;;;;;;5.03;1.40;;;;;;;5.97;75.75;99155.25;5005489;28;20337;-52
2021/12/05 13:10:40;;;;;;;2.83;1.25;;;;;;;6.96;72.51;99160.78;4998227;28;20456;-52
2021/12/05 13:13:18;;;;;;;2.67;1.50;;;;;;;6.99;71.56;99171.16;5000430;28;20050;-53
2021/12/05 13:15:53;;;;;;;5.05;1.95;;;;;;;6.94;71.75;99166.13;5005677;28;20049;-54
2021/12/05 13:18:35;;;;;;;3.70;1.70;;;;;;;6.81;72.26;99164.19;5007631;28;20054;-53
2021/12/05 13:21:13;;;;;;;2.10;1.33;;;;;;;6.72;71.53;99167.31;5005043;28;20057;-56
2021/12/05 13:23:46;;;;;;;2.30;1.38;;;;;;;6.63;71.96;99161.56;5006302;28;20046;-52
2021/12/05 13:26:19;;;;;;;3.90;1.45;;;;;;;6.80;72.00;99173.88;5007032;28;20074;-55
2021/12/05 13:29:03;;;;;;;2.55;1.10;;;;;;;6.93;71.02;99169.69;5002759;28;20124;-52
2021/12/05 13:31:32;;;;;;;3.25;1.02;;;;;;;6.96;71.19;99173.94;5002555;28;20046;-55
2021/12/05 13:34:15;;;;;;;2.45;1.38;;;;;;;6.95;69.96;99182.75;5001385;28;20045;-54
2021/12/05 13:36:55;;;;;;;3.28;1.48;;;;;;;6.89;70.11;99177.84;5008552;28;20124;-53
2021/12/05 13:39:44;;;;;;;2.63;1.50;;;;;;;6.87;70.66;99177.91;4999139;28;20071;-54
2021/12/05 13:42:47;;;;;;;4.38;1.95;;;;;;;6.84;70.67;99182.47;5003559;28;20046;-53
2021/12/05 13:45:26;;;;;;;2.97;1.27;;;;;;;6.78;70.81;99182.75;4989784;28;20491;-54
2021/12/05 13:47:52;;;;;;;3.10;1.40;;;;;;;6.69;69.78;99186.72;5011329;28;20048;-52
2021/12/05 13:50:19;;;;;;;2.40;1.10;;;;;;;6.53;70.47;99184.00;4994955;28;20046;-54
2021/12/05 13:52:58;;;;;;;2.88;1.63;;;;;;;6.43;70.84;99182.78;5004393;28;20232;-52
2021/12/05 13:55:39;;;;;;;4.57;2.05;;;;;;;6.53;70.13;99188.41;5007483;28;20061;-54
2021/12/05 13:58:40;;;;;;;7.82;5.13;;;;;;;6.51;70.14;99200.78;5004143;28;20057;-52
2021/12/05 14:01:16;;;;;;;4.13;2.47;;;;;;;6.49;70.27;99195.59;5005249;28;20163;-53
2021/12/05 14:03:46;;;;;;;5.43;3.35;;;;;;;6.50;69.39;99202.56;5005355;28;20038;-55
2021/12/05 14:06:43;;;;;;;7.32;3.80;;;;;;;6.45;69.96;99209.84;5002517;28;20042;-53
2021/12/05 14:09:22;;;;;;;9.25;5.20;;;;;;;6.50;69.92;99213.09;5006483;28;20064;-53
2021/12/05 14:11:56;;;;;;;8.38;3.30;;;;;;;6.50;69.58;99217.50;5008071;28;20042;-53
2021/12/05 14:14:35;;;;;;;5.63;2.85;;;;;;;6.41;70.25;99221.44;5009068;28;20057;-52
2021/12/05 14:17:15;;;;;;;8.80;4.47;;;;;;;6.36;70.84;99220.78;5005410;28;20495;-53
2021/12/05 14:19:46;;;;;;;3.03;2.10;;;;;;;6.28;71.02;99226.44;5004944;28;20056;-52
2021/12/05 14:22:14;;;;;;;4.25;1.85;;;;;;;6.19;71.67;99229.50;5006706;28;20057;-55
2021/12/05 14:24:46;;;;;;;5.63;2.40;;;;;;;6.14;72.81;99225.41;5009968;28;20060;-54
2021/12/05 14:27:17;;;;;;;4.85;3.33;;;;;;;6.10;73.35;99227.31;5012497;28;20363;-52
2021/12/05 14:29:46;;;;;;;3.63;2.10;;;;;;;6.04;73.73;99239.88;5000607;28;20057;-53
2021/12/05 14:32:22;;;;;;;3.20;1.58;;;;;;;6.02;74.16;99239.09;5006868;28;20407;-55
2021/12/05 14:34:54;;;;;;;8.18;5.60;;;;;;;6.05;73.66;99236.31;5014307;28;20072;-52
2021/12/05 14:37:25;;;;;;;4.25;2.40;;;;;;;5.98;74.87;99244.50;5014117;28;20069;-53
2021/12/05 14:39:55;;;;;;;2.55;1.50;;;;;;;5.90;75.25;99258.91;5003143;28;20045;-52
2021/12/05 14:42:23;;;;;;;;;;;;;;;5.76;75.95;99245.53;5009404;28;20152;-52
2021/12/05 14:44:53;;;;;;;3.95;1.90;;;;;;;5.81;76.20;99264.56;5017291;28;19929;-53
2021/12/05 14:47:23;;;;;;;2.53;1.38;;;;;;;5.77;76.20;99266.47;5011332;28;20054;-53
2021/12/05 14:49:56;;;;;;;3.22;1.50;;;;;;;5.78;76.00;99269.97;5010663;28;20515;-53
2021/12/05 14:52:31;;;;;;;1.50;1.25;;;;;;;5.79;76.02;99271.66;5014082;28;20076;-54
2021/12/05 14:55:01;;;;;;;4.45;1.20;;;;;;;5.82;76.29;99274.16;5010814;28;20414;-55
2021/12/05 14:57:40;;;;;;;4.15;2.22;;;;;;;5.85;75.57;99280.09;5005852;28;20042;-53
2021/12/05 15:00:18;;;;;;;3.17;1.20;;;;;;;5.74;75.63;99271.88;5006450;28;20053;-53
2021/12/05 15:02:45;;;;;;;3.22;1.23;;;;;;;5.79;76.29;99296.16;5004030;28;20491;-52
2021/12/05 15:05:15;;;;;;;1.70;1.58;;;;;;;5.79;76.62;99298.78;5016551;28;20049;-52
2021/12/05 15:07:44;;;;;;;2.78;1.40;;;;;;;5.77;76.14;99299.78;5014155;28;20045;-55
2021/12/05 15:10:17;;;;;;;2.75;1.50;;;;;;;5.74;75.90;99300.75;5002906;28;20499;-53
2021/12/05 15:12:44;;;;;;;3.40;1.38;;;;;;;5.73;76.25;99300.81;5006188;28;20526;-52
2021/12/05 15:15:12;;;;;;;3.47;1.10;;;;;;;5.70;76.81;99309.69;5008965;28;20045;-53
2021/12/05 15:17:41;;;;;;;4.85;2.65;;;;;;;5.64;77.02;99310.84;5003995;28;20054;-53
2021/12/05 15:20:15;;;;;;;3.30;2.13;;;;;;;5.61;77.08;99310.97;5001306;28;20052;-52
2021/12/05 15:22:44;;;;;;;5.55;2.72;;;;;;;5.65;77.09;99324.81;5007593;28;21310;-53
2021/12/05 15:25:16;;;;;;;2.58;0.93;;;;;;;5.72;76.22;99320.13;5010111;28;20052;-52
2021/12/05 15:27:45;;;;;;;3.53;2.00;;;;;;;5.76;76.79;99327.81;5003120;28;20068;-53
2021/12/05 15:30:18;;;;;;;3.33;1.60;;;;;;;5.75;77.32;99328.72;5004798;28;20045;-53
2021/12/05 15:32:50;;;;;;;3.88;2.05;;;;;;;5.68;79.26;99331.69;5006539;28;20415;-52
2021/12/05 15:35:19;;;;;;;5.03;2.40;;;;;;;5.63;79.51;99337.16;5004225;28;20821;-52
2021/12/05 15:38:06;;;;;;;5.78;3.10;;;;;;;5.53;80.28;99335.84;5002903;28;20071;-51
2021/12/05 15:40:35;;;;;;;4.10;2.67;;;;;;;5.42;81.46;99333.69;5001341;28;20061;-53
2021/12/05 15:43:08;;;;;;;4.07;2.72;;;;;;;5.36;82.86;99335.69;5006066;28;20056;-53
2021/12/05 15:45:35;;;;;;;5.82;2.53;;;;;;;5.29;83.40;99337.75;5005996;28;20082;-53
2021/12/05 15:48:03;;;;;;;5.18;2.95;;;;;;;5.19;84.16;99344.31;5003177;28;20062;-53
2021/12/05 15:50:32;;;;;;;3.67;2.38;;;;;;;5.12;84.65;99353.34;5006205;28;20050;-53
2021/12/05 15:53:07;;;;;;;2.67;1.90;;;;;;;4.94;85.19;99341.84;5005213;28;20059;-52
2021/12/05 15:55:44;;;;;;;4.90;1.95;;;;;;;4.99;85.79;99353.00;5007793;28;20041;-55
2021/12/05 15:58:30;;;;;;;4.60;2.60;;;;;;;4.96;85.83;99350.50;4997697;28;20495;-52
2021/12/05 16:01:02;;;;;;;6.20;1.90;;;;;;;4.90;86.09;99356.84;5008806;28;20554;-54
2021/12/05 16:03:59;;;;;;;3.97;1.65;;;;;;;4.93;86.67;99363.72;5009482;28;20135;-54
2021/12/05 16:06:39;;;;;;;4.45;1.50;;;;;;;4.91;86.90;99360.31;5004401;28;20052;-51
2021/12/05 16:09:15;;;;;;;3.30;2.20;;;;;;;4.88;86.77;99357.81;5011380;28;20054;-53
2021/12/05 16:11:43;;;;;;;2.30;1.80;;;;;;;4.86;86.51;99362.28;5008996;28;20069;-53
2021/12/05 16:14:09;;;;;;;4.72;2.35;;;;;;;4.81;86.97;99366.84;5010236;28;20045;-53
2021/12/05 16:16:36;;;;;;;2.92;1.90;;;;;;;4.80;87.20;99370.38;4998861;28;20053;-54
2021/12/05 16:19:10;;;;;;;3.63;1.85;;;;;;;4.77;87.11;99378.38;5008947;28;20053;-53
2021/12/05 16:21:38;;;;;;;3.42;1.90;;;;;;;4.73;87.56;99377.63;5009331;28;20793;-52
2021/12/05 16:24:11;;;;;;;3.13;1.90;;;;;;;4.72;88.42;99372.47;5009045;28;20418;-52
2021/12/05 16:26:39;;;;;;;6.70;2.53;;;;;;;4.69;88.76;99388.31;4990638;28;20049;-51
2021/12/05 16:29:09;;;;;;;4.55;2.70;;;;;;;4.69;88.45;99383.94;5007138;28;20045;-51
2021/12/05 16:31:42;;;;;;;5.65;2.88;;;;;;;4.72;89.48;99382.97;5001693;28;20046;-53
2021/12/05 16:34:17;;;;;;;3.35;2.28;;;;;;;4.73;88.91;99388.13;5014133;28;20069;-54
2021/12/05 16:36:47;;;;;;;8.32;3.10;;;;;;;4.72;89.32;99389.03;4998023;28;20062;-51
2021/12/05 16:39:22;;;;;;;5.63;3.40;;;;;;;4.70;89.47;99392.66;5005662;28;20049;-53
2021/12/05 16:41:53;;;;;;;26.13;17.20;;;;;;;4.70;89.36;99385.66;5003242;28;20053;-53
2021/12/05 16:44:21;;;;;;;;;;;;;;;4.69;89.23;99401.44;5009781;28;20045;-54
2021/12/05 16:46:52;;;;;;;8.75;4.20;;;;;;;4.67;89.21;99404.13;5003300;28;19974;-52
2021/12/05 16:49:19;;;;;;;;;;;;;;;4.68;89.55;99402.34;5011599;28;20228;-51
2021/12/05 16:51:50;;;;;;;8.15;5.00;;;;;;;4.69;89.65;99407.53;5003535;28;19929;-52
2021/12/05 16:54:20;;;;;;;;;;;;;;;4.72;89.10;99409.19;5009034;28;20056;-53
2021/12/05 16:56:48;;;;;;;7.70;4.55;;;;;;;4.71;89.08;99410.09;4996725;28;19937;-53
2021/12/05 16:59:44;;;;;;;11.32;5.03;;;;;;;4.71;89.30;99410.09;5007732;28;20080;-54
2021/12/05 17:02:20;;;;;;;12.18;5.70;;;;;;;4.70;89.73;99405.78;4989843;28;20046;-54
2021/12/05 17:05:18;;;;;;;12.98;4.82;;;;;;;4.69;89.55;99417.16;4994221;28;20137;-52
2021/12/05 17:07:48;;;;;;;9.18;4.90;;;;;;;4.67;89.48;99422.47;5007067;28;20086;-53
2021/12/05 17:10:21;;;;;;;13.32;6.05;;;;;;;4.61;89.53;99417.44;5010621;28;20057;-51
2021/12/05 17:12:49;;;;;;;10.18;6.22;;;;;;;4.57;90.16;99419.31;5004803;28;20045;-52
2021/12/05 17:15:31;;;;;;;9.40;6.10;;;;;;;4.54;90.27;99424.72;5007917;28;20049;-52
2021/12/05 17:18:04;;;;;;;12.52;6.22;;;;;;;4.54;90.70;99423.84;5003913;28;20049;-53
2021/12/05 17:20:37;;;;;;;10.52;5.75;;;;;;;4.52;90.20;99434.41;5010181;28;20053;-53
2021/12/05 17:23:12;;;;;;;11.20;5.88;;;;;;;4.54;90.07;99442.22;5003665;28;20050;-53